ADDS METAR Data INFO
IDs: Format: Raw Decoded Include TAF

Data at: 1104 UTC 17 Jul 2018

PHLI 171053Z 06014KT 10SM FEW016 BKN049 26/23 A3008 RMK AO2 SLP182 T02560228 $
PHLI 171040Z 06015KT 10SM SCT018 SCT030 BKN049 26/23 A3009 RMK AO2 T02560228 $
PHLI 171024Z 06016KT 10SM SCT018 BKN029 OVC047 26/23 A3009 RMK AO2 T02560228 $
PHLI 170953Z AUTO 05013KT 10SM FEW017 SCT024 BKN048 A3011 RMK AO2 SLPNO TSNO $
PHLI 170946Z AUTO 05012KT 10SM FEW017 SCT026 OVC047 A3010 RMK AO2 TSNO $
PHLI 170923Z AUTO 05015KT 10SM SCT017 BKN024 OVC045 A3010 RMK AO2 TSNO $
PHLI 170853Z AUTO 06014KT 10SM SCT018 BKN044 25/19 A3010 RMK AO2 SLP189 T02500183 51011 TSNO $
PHLI 170833Z AUTO 06016KT 10SM SCT019 SCT027 BKN043 25/19 A3010 RMK AO2 T02500183 TSNO $
PHLI 170753Z COR 06015KT 10SM BKN020 BKN027 A3009 RMK LAST AO2 SLPNO $
PHLI 170653Z 06013KT 10SM BKN019 BKN024 26/19 A3008 RMK AO2 SLP182 T02610189 $
PHLI 170553Z COR 05015KT 10SM SCT020 BKN027 26/14 A3007 RMK AO2 SLPNO T0261 53015 $
PHLI 170453Z 05014KT 10SM SCT017 BKN025 BKN030 28/23 A3005 RMK AO2 SLP173 T02780233 $
PHLI 170446Z 04016KT 10SM FEW018 SCT025 BKN030 28/23 A3005 RMK AO2 T02780233 $
PHLI 170436Z 05013KT 10SM SCT020 BKN027 BKN037 28/23 A3005 RMK AO2 T02780233 $
PHLI 170424Z 05011KT 10SM FEW018 SCT029 SCT042 28/23 A3004 RMK AO2 T02780233 $
PHLI 170405Z 05012KT 10SM SCT017 BKN026 BKN033 28/23 A3004 RMK AO2 T02780233 $
PHLI 170353Z COR 04013KT 10SM FEW022 BKN028 BKN037 28/23 A3004 RMK AO2 SLPNO T03000233 $
PHLI 170253Z 05011KT 10SM FEW022 BKN028 BKN037 28/23 A3002 RMK AO2 SLPNO T02830233 56007 $
PHLI 170153Z 06010KT 10SM FEW018 SCT025 BKN030 28/23 A3003 RMK AO2 SLPNO T02780233 $
PHLI 170053Z 06011KT 10SM FEW017 FEW022 SCT041 28/23 A3004 RMK AO2 SLPNO T02780228 $
PHLI 162353Z 05011KT 10SM FEW018 SCT027 BKN037 28/23 A3005 RMK AO2 SLPNO T02780233 58005 $
PHLI 162253Z 07012KT 10SM FEW018 SCT027 BKN037 28/23 A3005 RMK AO2 SLP174 T02780233 $
PHLI 162153Z 07012KT 10SM BKN016 BKN022 28/23 A3006 RMK AO2 SLP175 T02780233 $
PHLI 162139Z 07012KT 10SM BKN016 BKN024 OVC046 A3006 RMK AO2 $
PHLI 162053Z 07013KT 10SM FEW018 BKN048 28/23 A3006 RMK AO2 SLPNO T02830233 53001 $
PHLI 161953Z 08014KT 10SM FEW014 OVC038 27/24 A3006 RMK AO2 SLP175 T02670233 $
PHLI 161853Z 08016KT 10SM SCT016 BKN043 28/23 A3006 RMK AO2 SLP175 T02780228 $
PHLI 161753Z COR 08013KT 9SM SCT016 BKN043 27/23 A3005 RMK AO2 SLPNO 53014 $
PHLI 161653Z 08013KT 10SM SCT016 OVC036 26/24 A3004 RMK AO2 SLP168 T02610239 $
PHLI 161621Z 08013KT 10SM SCT016 OVC036 26/24 A3002 RMK AO2 T02610239 $
PHLI 161553Z COR 06009KT 10SM SCT014 OVC031 26/24 A3001 RMK AO2 SLPNO $
PHLI 161541Z AUTO 07013KT 10SM SCT017 OVC031 A3002 RMK AO2 TSNO $
PHLI 161453Z AUTO 08013KT 10SM BKN017 BKN032 OVC050 A3001 RMK AO2 SLPNO 56003 TSNO $
PHLI 161353Z AUTO 07011KT 10SM SCT015 BKN019 OVC040 A3001 RMK AO2 SLPNO TSNO $
PHLI 161346Z AUTO 07011KT 10SM FEW015 BKN021 OVC039 A3001 RMK AO2 TSNO $
PHLI 161253Z AUTO 07013KT 10SM SCT016 BKN036 BKN043 A3001 RMK AO2 SLPNO TSNO $
PHLI 161229Z AUTO 08015KT 10SM BKN016 BKN043 OVC050 A3001 RMK AO2 TSNO $
PHLI 161222Z AUTO 06013KT 10SM BKN014 BKN019 OVC050 A3001 RMK AO2 TSNO $
PHLI 161212Z AUTO 07013KT 10SM SCT016 SCT039 OVC050 A3002 RMK AO2 TSNO $
PHLI 161153Z AUTO 07013KT 10SM SCT016 BKN024 OVC048 A3002 RMK AO2 SLPNO 56014 TSNO $
PHLI 161053Z AUTO 06010KT 10SM SCT015 BKN023 26/23 A3003 RMK AO2 SLP167 T02610228 TSNO $
PHLI 161018Z AUTO 07011KT 10SM SCT017 SCT023 26/23 A3005 RMK AO2 T02610228 TSNO $
PHLI 161008Z 06011KT 10SM SCT015 BKN020 26/23 A3005 RMK AO2 T02610228 $
PHLI 161001Z 06011KT 10SM SCT015 SCT020 26/23 A3005 RMK AO2 T02610228 $
PHLI 160953Z AUTO 06010KT 10SM BKN015 26/23 A3005 RMK AO2 SLP173 T02560228 402720078 TSNO $
PHLI 160917Z AUTO 05013G19KT 10SM BKN015 OVC060 A3005 RMK AO2 TSNO $
PHLI 160853Z AUTO 05011KT 10SM BKN014 OVC060 A3006 RMK AO2 SLPNO 53009 TSNO $
PHLI 160753Z 04012KT 10SM BKN012 OVC055 27/23 A3005 RMK AO2 SLP174 LAST T02720228 $
PHLI 160653Z 05013KT 10SM SCT012 OVC019 27/23 A3005 RMK AO2 SLP172 T02720228 $
PHLI 160553Z 03010KT 10SM OVC015 27/23 A3004 RMK AO2 SLPNO T02720228 10272 20267 53009 $
PHLI 160453Z 04010KT 10SM BKN015 OVC044 27/23 A3002 RMK AO2 SLP164 T02720228 $
PHLI 160353Z 04012KT 10SM BKN016 OVC044 27/23 A3001 RMK AO2 SLP162 T02720228 $
PHLI 160253Z 05013KT 10SM SCT013 BKN042 27/23 A3001 RMK AO2 SLP160 T02670228 58005 $
PHLI 160153Z 05011KT 10SM SCT016 BKN025 OVC035 27/23 A3002 RMK AO2 SLP161 T02670228 $
PHLI 160053Z 05011KT 10SM BKN018 OVC022 27/23 A3002 RMK AO2 SLP162 T02720228 $
PHLI 152353Z 06013KT 10SM SCT017 OVC022 27/23 A3003 RMK AO2 SLP164 T02720228 10272 20094 58006 $